КС Донская

Карта отелей и гостиниц, располагающихся рядом с аэропортом КС Донская :

КС Донская Липецкая область 52° 47' 17.7" N, 38° 47' 29.3388" E
Код аэродрома ИКАО
H198
Код аэродрома RU
Х198
Координаты
N52.78825° E038.79148°
Превышение над уровнем моря
213
Основная полоса
16/34
Курс магнитный
161/341
Длина основной ВПП
20
Ширина основной ВПП
20
Покрытие основной ВПП
Твёрдое (асфальтобетон)
Освещение ВПП
Нет
Тип: 
Вертодром
Класс аэродрома: 
Принадлежность: 
ГА
Статус: 
Действующий
Сайт: 
E-mail аэродрома: 
Страна: 
Россия
Регион: 
Липецкая область
Город: 
Дополнительная информация: 
Оператор: Компрессорная станция "Донская" (ГазПром).

Найти трансфер

С помощью этой формы Вы можете найти трансфер из аэропорта КС Донская в город, аэропорт или вокзал:

Карта места

Javascript is required to view this map.

Погода в аэропортах:

Авиационная погода в Челябинске

Регион: 
Погода METAR: 
USCC 171830Z 28003MPS 9999 -SHRA BKN026CB 07/07 Q1007 R27/290050 TEMPO 2000 SHRA RMK QFE735
Время наблюдения
2021-09-17T18:30:00Z
Температура C
7.0
Точка росы
7.0
Направление ветра
280
Скорость ветра (узлы)
6
Метео видимость
6.21
Явления погоды
-SHRA
Условия полета
MVFR
Аэропорт подробнее: 

Авиационная погода в Екатеринбурге

Регион: 
Погода METAR: 
USSS 171830Z 10002MPS 9000 -SHRA SCT008 OVC022CB 05/05 Q1007 R26L/290050 R26R/290032 TEMPO 3100 -SHRA BKN005 SCT016CB RMK QFE734/0979
Время наблюдения
2021-09-17T18:30:00Z
Температура C
5.0
Точка росы
5.0
Направление ветра
100
Скорость ветра (узлы)
4
Метео видимость
5.59
Явления погоды
-SHRA
Условия полета
MVFR
Аэропорт подробнее: 

Авиационная погода в Емельяново

Регион: 
Погода METAR: 
UNKL 171830Z 10002MPS 0150 0100S R29/0550U FG SCT001 08/08 Q1005 R29/CLRD65 NOSIG RMK QBB050 QFE729
Время наблюдения
2021-09-17T18:30:00Z
Температура C
8.0
Точка росы
8.0
Направление ветра
100
Скорость ветра (узлы)
4
Метео видимость
0.09
Явления погоды
FG
Условия полета
LIFR
Аэропорт подробнее: 

Авиационная погода в Махачкале

Регион: 
Погода METAR: 
URML 171830Z 06002MPS 9999 -RA OVC024 18/15 Q1016 R14/290060 NOSIG RMK QFE762/1016
Время наблюдения
2021-09-17T18:30:00Z
Температура C
18.0
Точка росы
15.0
Направление ветра
60
Скорость ветра (узлы)
4
Метео видимость
6.21
Явления погоды
-RA
Условия полета
MVFR
Аэропорт подробнее: